createdAt,value
2019-04-05T00:00:06.985Z,99.90
2019-04-05T00:02:35.787Z,99.90
2019-04-05T00:05:05.302Z,99.90
2019-04-05T00:07:34.484Z,99.90
2019-04-05T00:10:03.552Z,99.90
2019-04-05T00:12:33.198Z,99.90
2019-04-05T00:15:14.296Z,99.90
2019-04-05T00:17:32.812Z,99.90
2019-04-05T00:20:01.633Z,99.90
2019-04-05T00:22:30.422Z,99.90
2019-04-05T00:24:59.308Z,99.90
2019-04-05T00:27:28.087Z,99.90
2019-04-05T00:29:57.276Z,99.90
2019-04-05T00:32:26.019Z,99.90
2019-04-05T00:34:55.459Z,99.90
2019-04-05T00:37:24.252Z,99.90
2019-04-05T00:39:53.085Z,99.90
2019-04-05T00:42:21.964Z,99.90
2019-04-05T00:44:50.850Z,99.90
2019-04-05T00:47:20.581Z,99.90
2019-04-05T00:49:49.683Z,99.90
2019-04-05T00:52:18.872Z,99.90
2019-04-05T00:54:47.936Z,99.90
2019-04-05T00:57:17.307Z,99.90
2019-04-05T00:59:46.099Z,99.90
2019-04-05T01:02:14.961Z,99.90
2019-04-05T01:04:43.820Z,99.90
2019-04-05T01:07:12.700Z,99.90
2019-04-05T01:09:41.592Z,99.90
2019-04-05T01:12:10.600Z,99.90
2019-04-05T01:14:39.575Z,99.90
2019-04-05T01:17:08.362Z,99.90
2019-04-05T01:19:40.166Z,99.90
2019-04-05T01:22:11.190Z,99.90
2019-04-05T01:24:40.075Z,99.90
2019-04-05T01:27:09.483Z,99.90
2019-04-05T01:29:38.632Z,99.90
2019-04-05T01:32:07.366Z,99.90
2019-04-05T01:34:36.454Z,99.90
2019-04-05T01:37:05.309Z,99.90
2019-04-05T01:39:34.304Z,99.90
2019-04-05T01:42:03.332Z,99.90
2019-04-05T01:44:33.039Z,99.90
2019-04-05T01:47:01.744Z,99.90
2019-04-05T01:49:30.519Z,99.90
2019-04-05T01:51:59.611Z,99.90
2019-04-05T01:54:29.229Z,99.90
2019-04-05T01:56:58.125Z,99.90
2019-04-05T01:59:26.855Z,99.90
2019-04-05T02:01:55.610Z,99.90
2019-04-05T02:04:24.338Z,99.90
2019-04-05T02:06:53.134Z,99.90
2019-04-05T02:09:22.243Z,99.90
2019-04-05T02:11:51.339Z,99.90
2019-04-05T02:14:20.148Z,99.90
2019-04-05T02:16:48.962Z,99.90
2019-04-05T02:19:17.844Z,99.90
2019-04-05T02:21:48.659Z,99.90
2019-04-05T02:24:17.461Z,99.90
2019-04-05T02:26:46.571Z,99.90
2019-04-05T02:29:15.396Z,99.90
2019-04-05T02:31:44.318Z,99.90
2019-04-05T02:34:13.841Z,99.90
2019-04-05T02:36:42.633Z,99.90
2019-04-05T02:39:11.781Z,99.90
2019-04-05T02:41:41.128Z,99.90
2019-04-05T02:44:12.714Z,99.90
2019-04-05T02:46:44.688Z,99.90
2019-04-05T02:49:15.226Z,99.90
2019-04-05T02:51:46.805Z,99.90
2019-04-05T02:54:16.696Z,99.90
2019-04-05T02:56:46.175Z,99.90
2019-04-05T02:59:15.848Z,99.90
2019-04-05T03:01:45.404Z,99.90
2019-04-05T03:04:14.852Z,99.90
2019-04-05T03:06:44.708Z,99.90
2019-04-05T03:09:13.976Z,99.90
2019-04-05T03:11:43.875Z,99.90
2019-04-05T03:14:14.200Z,99.90
2019-04-05T03:16:46.120Z,99.90
2019-04-05T03:19:21.571Z,99.90
2019-04-05T03:21:53.785Z,99.90
2019-04-05T03:24:26.496Z,99.90
2019-04-05T03:26:59.470Z,99.90
2019-04-05T03:29:28.666Z,99.90
2019-04-05T03:31:57.695Z,99.90
2019-04-05T03:34:27.056Z,99.90
2019-04-05T03:37:00.057Z,99.90
2019-04-05T03:39:29.168Z,99.90
2019-04-05T03:41:58.442Z,99.90
2019-04-05T03:44:28.575Z,99.90
2019-04-05T03:46:58.252Z,99.90
2019-04-05T03:49:27.480Z,99.90
2019-04-05T03:51:56.871Z,99.90
2019-04-05T03:54:25.642Z,99.90
2019-04-05T03:56:54.779Z,99.90
2019-04-05T03:59:23.757Z,99.90
2019-04-05T04:01:53.366Z,99.90
2019-04-05T04:04:22.427Z,99.90
2019-04-05T04:06:51.192Z,99.90
2019-04-05T04:09:20.476Z,99.90
2019-04-05T04:11:49.594Z,99.90
2019-04-05T04:14:19.253Z,99.90
2019-04-05T04:16:48.150Z,99.90
2019-04-05T04:19:18.331Z,99.90
2019-04-05T04:22:15.810Z,99.90
2019-04-05T04:24:44.994Z,99.90
2019-04-05T04:27:13.893Z,99.90
2019-04-05T04:29:43.023Z,99.90
2019-04-05T04:32:12.231Z,99.90
2019-04-05T04:34:41.653Z,99.90
2019-04-05T04:37:10.610Z,99.90
2019-04-05T04:39:39.951Z,99.90
2019-04-05T04:42:09.142Z,99.90
2019-04-05T04:44:38.229Z,99.90
2019-04-05T04:47:07.954Z,99.90
2019-04-05T04:49:36.902Z,99.90
2019-04-05T04:52:06.196Z,99.90
2019-04-05T04:54:35.021Z,99.90
2019-04-05T04:57:04.354Z,99.90
2019-04-05T04:59:33.294Z,99.90
2019-04-05T05:02:02.477Z,99.90
2019-04-05T05:04:31.653Z,99.90
2019-04-05T05:07:00.743Z,99.90
2019-04-05T05:09:30.213Z,99.90
2019-04-05T05:11:59.488Z,99.90
2019-04-05T05:14:28.744Z,99.90
2019-04-05T05:16:58.278Z,99.90
2019-04-05T05:19:27.422Z,99.90
2019-04-05T05:21:56.363Z,99.90
2019-04-05T05:24:25.493Z,99.90
2019-04-05T05:26:54.605Z,99.90
2019-04-05T05:29:23.688Z,99.90
2019-04-05T05:31:52.727Z,99.90
2019-04-05T05:34:21.732Z,99.90
2019-04-05T05:36:51.078Z,99.90
2019-04-05T05:39:20.133Z,99.90
2019-04-05T05:41:49.156Z,99.90
2019-04-05T05:44:18.199Z,99.90
2019-04-05T05:46:47.014Z,99.90
2019-04-05T05:49:15.844Z,99.90
2019-04-05T05:51:46.870Z,99.90
2019-04-05T05:54:15.711Z,99.90
2019-04-05T05:56:44.419Z,99.90
2019-04-05T05:59:13.230Z,99.90
2019-04-05T06:01:42.059Z,99.90
2019-04-05T06:04:12.735Z,99.90
2019-04-05T06:06:41.445Z,99.90
2019-04-05T06:09:10.294Z,99.90
2019-04-05T06:11:39.131Z,99.90
2019-04-05T06:14:07.919Z,99.90
2019-04-05T06:16:46.214Z,99.90
2019-04-05T06:19:08.752Z,99.90
2019-04-05T06:21:37.685Z,99.90
2019-04-05T06:24:06.566Z,99.90
2019-04-05T06:26:35.325Z,99.90
2019-04-05T06:29:04.199Z,99.90
2019-04-05T06:31:33.011Z,99.90
2019-04-05T06:34:01.802Z,99.90
2019-04-05T06:36:30.558Z,99.90
2019-04-05T06:38:59.425Z,99.90
2019-04-05T06:41:28.162Z,99.90
2019-04-05T06:43:57.015Z,99.90
2019-04-05T06:46:25.968Z,99.90
2019-04-05T06:48:54.722Z,99.90
2019-04-05T06:51:23.829Z,99.90
2019-04-05T06:53:52.650Z,99.90
2019-04-05T06:56:21.703Z,99.90
2019-04-05T06:58:50.597Z,99.90
2019-04-05T07:01:19.391Z,99.90
2019-04-05T07:03:57.172Z,99.90
2019-04-05T07:06:26.007Z,99.90
2019-04-05T07:08:54.807Z,99.90
2019-04-05T07:11:23.595Z,99.90
2019-04-05T07:13:52.459Z,99.90
2019-04-05T07:16:21.454Z,99.90
2019-04-05T07:18:50.628Z,99.90
2019-04-05T07:21:22.507Z,99.90
2019-04-05T07:23:51.404Z,99.90
2019-04-05T07:26:21.066Z,99.90
2019-04-05T07:28:50.535Z,99.90
2019-04-05T07:31:19.296Z,99.90
2019-04-05T07:33:48.498Z,99.90
2019-04-05T07:36:17.331Z,99.90
2019-04-05T07:38:46.079Z,99.90
2019-04-05T07:41:15.244Z,99.90
2019-04-05T07:43:44.477Z,99.90
2019-04-05T07:46:14.458Z,99.90
2019-04-05T07:48:45.248Z,99.90
2019-04-05T07:51:14.067Z,99.90
2019-04-05T07:53:43.029Z,99.90
2019-04-05T07:56:17.555Z,99.90
2019-04-05T07:58:46.372Z,99.90
2019-04-05T08:01:15.382Z,99.90
2019-04-05T08:03:44.190Z,99.90
2019-04-05T08:06:13.197Z,99.90
2019-04-05T08:09:07.544Z,99.90
2019-04-05T08:11:37.171Z,99.90
2019-04-05T08:14:06.847Z,99.90
2019-04-05T08:16:35.647Z,99.90
2019-04-05T08:19:04.841Z,99.90
2019-04-05T08:21:33.643Z,99.90
2019-04-05T08:24:02.550Z,99.90
2019-04-05T08:26:31.393Z,99.90
2019-04-05T08:29:00.439Z,99.90
2019-04-05T08:31:29.262Z,99.90
2019-04-05T08:33:59.558Z,99.90
2019-04-05T08:36:28.320Z,99.90
2019-04-05T08:38:57.060Z,99.90
2019-04-05T08:41:25.979Z,99.90
2019-04-05T08:43:54.757Z,99.90
2019-04-05T08:46:24.073Z,99.90
2019-04-05T08:48:53.139Z,99.90
2019-04-05T08:51:21.940Z,99.90
2019-04-05T08:53:50.784Z,99.90
2019-04-05T08:56:19.596Z,99.90
2019-04-05T08:58:48.807Z,99.90
2019-04-05T09:01:17.534Z,99.90
2019-04-05T09:03:46.312Z,99.90
2019-04-05T09:06:15.100Z,99.90
2019-04-05T09:08:44.183Z,99.90
2019-04-05T09:11:12.938Z,99.90
2019-04-05T09:13:43.915Z,99.90
2019-04-05T09:16:12.731Z,99.90
2019-04-05T09:18:41.456Z,99.90
2019-04-05T09:21:10.455Z,99.90
2019-04-05T09:23:39.460Z,99.90
2019-04-05T09:26:08.247Z,99.90
2019-04-05T09:28:45.426Z,99.90
2019-04-05T09:31:14.774Z,99.90
2019-04-05T09:33:43.772Z,99.90
2019-04-05T09:36:12.534Z,99.90
2019-04-05T09:38:41.432Z,99.90
2019-04-05T09:41:10.203Z,99.90
2019-04-05T09:43:39.011Z,99.90
2019-04-05T09:46:07.882Z,99.90
2019-04-05T09:48:36.711Z,99.90
2019-04-05T09:51:07.099Z,99.90
2019-04-05T09:53:36.204Z,99.90
2019-04-05T09:56:05.109Z,99.90
2019-04-05T09:58:35.065Z,99.90
2019-04-05T10:01:04.163Z,99.90
2019-04-05T10:03:33.067Z,99.90
2019-04-05T10:06:06.204Z,99.90
2019-04-05T10:08:37.897Z,99.90
2019-04-05T10:11:09.615Z,99.90
2019-04-05T10:13:41.491Z,99.90
2019-04-05T10:16:11.124Z,99.90
2019-04-05T10:18:39.986Z,99.90
2019-04-05T10:21:08.759Z,99.90
2019-04-05T10:23:37.613Z,99.90
2019-04-05T10:26:07.123Z,99.90
2019-04-05T10:28:35.910Z,99.90
2019-04-05T10:31:04.879Z,99.90
2019-04-05T10:33:34.041Z,99.90
2019-04-05T10:36:03.123Z,99.90
2019-04-05T10:38:31.985Z,99.90
2019-04-05T10:41:00.840Z,99.90
2019-04-05T10:43:30.274Z,99.90
2019-04-05T10:45:59.374Z,99.90
2019-04-05T10:48:28.211Z,99.30
2019-04-05T10:50:57.070Z,99.90
2019-04-05T10:53:25.873Z,99.90
2019-04-05T10:55:54.815Z,99.50
2019-04-05T10:58:23.714Z,98.60
2019-04-05T11:00:53.081Z,98.90
2019-04-05T11:03:21.943Z,98.00
2019-04-05T11:05:50.696Z,96.50
2019-04-05T11:08:19.767Z,97.30
2019-04-05T11:10:48.531Z,97.60
2019-04-05T11:13:17.639Z,96.60
2019-04-05T11:15:46.549Z,97.50
2019-04-05T11:18:15.902Z,98.50
2019-04-05T11:20:45.067Z,97.80
2019-04-05T11:23:13.932Z,96.30
2019-04-05T11:25:42.952Z,94.60
2019-04-05T11:28:12.164Z,95.10
2019-04-05T11:30:43.537Z,94.70
2019-04-05T11:33:12.662Z,92.70
2019-04-05T11:35:41.605Z,95.40
2019-04-05T11:38:11.106Z,99.20
2019-04-05T11:40:40.173Z,98.10
2019-04-05T11:43:08.943Z,99.00
2019-04-05T11:45:38.052Z,95.70
2019-04-05T11:48:07.227Z,94.80
2019-04-05T11:50:36.071Z,94.90
2019-04-05T11:53:05.488Z,94.70
2019-04-05T11:55:34.616Z,96.80
2019-04-05T11:58:03.771Z,98.80
2019-04-05T12:00:44.425Z,98.20
2019-04-05T12:03:13.428Z,98.40
2019-04-05T12:05:42.220Z,99.20
2019-04-05T12:08:11.363Z,99.90
2019-04-05T12:10:40.139Z,99.90
2019-04-05T12:13:08.995Z,99.90
2019-04-05T12:15:37.804Z,99.90
2019-04-05T12:18:06.603Z,99.90
2019-04-05T12:20:47.842Z,99.90
2019-04-05T12:23:06.282Z,99.90
2019-04-05T12:25:35.155Z,99.90
2019-04-05T12:28:07.544Z,99.90
2019-04-05T12:30:35.203Z,99.90
2019-04-05T12:33:13.755Z,99.90
2019-04-05T12:35:37.427Z,99.90
2019-04-05T12:38:06.946Z,99.90
2019-04-05T12:40:35.919Z,99.90
2019-04-05T12:43:04.788Z,99.90
2019-04-05T12:45:33.731Z,99.90
2019-04-05T12:48:02.897Z,99.90
2019-04-05T12:50:31.717Z,98.70
2019-04-05T12:53:00.485Z,98.40
2019-04-05T12:55:29.735Z,97.30
2019-04-05T12:57:58.535Z,96.60
2019-04-05T13:00:27.380Z,95.70
2019-04-05T13:02:57.130Z,96.60
2019-04-05T13:05:26.351Z,98.70
2019-04-05T13:07:55.174Z,96.80
2019-04-05T13:10:26.170Z,96.00
2019-04-05T13:12:57.159Z,96.10
2019-04-05T13:15:25.058Z,96.40
2019-04-05T13:17:54.946Z,97.20
2019-04-05T13:20:23.837Z,99.40
2019-04-05T13:22:53.052Z,98.50
2019-04-05T13:25:23.071Z,96.20
2019-04-05T13:27:52.088Z,97.20
2019-04-05T13:30:21.217Z,96.00
2019-04-05T13:32:52.759Z,95.40
2019-04-05T13:35:20.635Z,93.60
2019-04-05T13:37:49.454Z,88.40
2019-04-05T13:40:19.229Z,91.10
2019-04-05T13:42:48.037Z,91.20
2019-04-05T13:45:17.172Z,90.90
2019-04-05T13:47:46.062Z,89.00
2019-04-05T13:50:14.985Z,90.80
2019-04-05T13:52:43.732Z,90.10
2019-04-05T13:55:12.862Z,86.00
2019-04-05T13:57:41.958Z,87.30
2019-04-05T14:00:12.035Z,87.30
2019-04-05T14:02:41.154Z,86.30
2019-04-05T14:05:10.371Z,86.60
2019-04-05T14:07:39.293Z,87.90
2019-04-05T14:10:12.363Z,87.80
2019-04-05T14:12:40.109Z,87.30
2019-04-05T14:15:11.448Z,87.10
2019-04-05T14:17:44.079Z,90.80
2019-04-05T14:20:11.538Z,92.40
2019-04-05T14:22:40.391Z,91.00
2019-04-05T14:25:09.701Z,92.10
2019-04-05T14:27:38.415Z,92.10
2019-04-05T14:30:09.119Z,92.30
2019-04-05T14:32:37.875Z,92.90
2019-04-05T14:35:08.029Z,92.90
2019-04-05T14:37:37.218Z,93.20
2019-04-05T14:40:06.702Z,94.10
2019-04-05T14:42:35.495Z,97.00
2019-04-05T14:45:05.039Z,98.10
2019-04-05T14:47:34.103Z,99.90
2019-04-05T14:50:02.951Z,99.90
2019-04-05T14:52:31.923Z,99.90
2019-04-05T14:55:00.722Z,99.90
2019-04-05T14:57:29.976Z,99.90
2019-04-05T14:59:58.813Z,99.90
2019-04-05T15:02:27.623Z,99.90
2019-04-05T15:04:56.492Z,99.90
2019-04-05T15:07:25.567Z,99.90
2019-04-05T15:09:55.575Z,99.90
2019-04-05T15:12:28.892Z,99.90
2019-04-05T15:14:55.306Z,99.90
2019-04-05T15:17:24.082Z,99.90
2019-04-05T15:19:52.916Z,99.90
2019-04-05T15:22:21.804Z,99.90
2019-04-05T15:24:50.675Z,99.90
2019-04-05T15:27:21.606Z,99.90
2019-04-05T15:29:51.004Z,99.90
2019-04-05T15:32:19.777Z,99.90
2019-04-05T15:34:48.605Z,99.90
2019-04-05T15:37:17.472Z,99.90
2019-04-05T15:39:46.293Z,99.90
2019-04-05T15:42:15.350Z,98.70
2019-04-05T15:44:44.132Z,98.90
2019-04-05T15:47:13.772Z,98.80
2019-04-05T15:49:42.705Z,99.90
2019-04-05T15:52:18.557Z,99.90
2019-04-05T15:54:43.244Z,99.90
2019-04-05T15:57:12.348Z,99.90
2019-04-05T15:59:41.461Z,99.90
2019-04-05T16:02:10.339Z,99.90
2019-04-05T16:04:39.137Z,99.90
2019-04-05T16:07:08.101Z,99.90
2019-04-05T16:09:37.019Z,99.90
2019-04-05T16:12:07.337Z,99.90
2019-04-05T16:14:36.139Z,99.90
2019-04-05T16:17:05.082Z,99.90
2019-04-05T16:19:33.898Z,99.90
2019-04-05T16:22:02.715Z,99.90
2019-04-05T16:24:31.852Z,99.90
2019-04-05T16:27:00.666Z,99.90
2019-04-05T16:29:29.487Z,99.90
2019-04-05T16:31:58.315Z,99.90
2019-04-05T16:34:27.134Z,99.90
2019-04-05T16:36:55.956Z,99.90
2019-04-05T16:39:24.750Z,99.90
2019-04-05T16:41:53.564Z,99.90
2019-04-05T16:44:22.684Z,99.90
2019-04-05T16:46:51.570Z,99.90
2019-04-05T16:49:20.578Z,99.90
2019-04-05T16:51:50.520Z,99.90
2019-04-05T16:54:19.317Z,99.90
2019-04-05T16:56:48.522Z,99.90
2019-04-05T16:59:17.327Z,99.90
2019-04-05T17:01:46.195Z,99.90
2019-04-05T17:04:14.995Z,99.90
2019-04-05T17:06:43.739Z,99.90
2019-04-05T17:09:12.697Z,99.90
2019-04-05T17:11:41.443Z,99.90
2019-04-05T17:14:10.297Z,99.90
2019-04-05T17:16:40.231Z,99.90
2019-04-05T17:19:09.086Z,99.90
2019-04-05T17:21:38.260Z,99.90
2019-04-05T17:24:07.629Z,99.90
2019-04-05T17:26:37.043Z,99.90
2019-04-05T17:29:06.050Z,99.90
2019-04-05T17:31:34.926Z,99.90
2019-04-05T17:34:04.241Z,99.90
2019-04-05T17:36:33.384Z,99.90
2019-04-05T17:39:02.416Z,99.90
2019-04-05T17:41:31.625Z,99.90
2019-04-05T17:44:00.972Z,99.90
2019-04-05T17:46:29.826Z,99.90
2019-04-05T17:48:58.675Z,99.90
2019-04-05T17:51:27.724Z,99.90
2019-04-05T17:53:57.091Z,99.90
2019-04-05T17:56:27.288Z,99.90
2019-04-05T17:58:56.608Z,99.90
2019-04-05T18:01:26.904Z,99.90
2019-04-05T18:03:56.698Z,99.90
2019-04-05T18:06:25.525Z,99.90
2019-04-05T18:08:54.598Z,99.90
2019-04-05T18:11:26.802Z,99.90
2019-04-05T18:13:55.710Z,99.90
2019-04-05T18:16:24.997Z,99.90
2019-04-05T18:18:53.990Z,99.90
2019-04-05T18:21:23.390Z,99.90
2019-04-05T18:23:52.171Z,99.90
2019-04-05T18:26:21.628Z,99.90
2019-04-05T18:28:50.694Z,99.90
2019-04-05T18:31:19.436Z,99.90
2019-04-05T18:33:48.938Z,99.90
2019-04-05T18:36:17.775Z,99.90
2019-04-05T18:38:46.811Z,99.90
2019-04-05T18:41:15.783Z,99.90
2019-04-05T18:43:45.948Z,99.90
2019-04-05T18:46:14.675Z,99.90
2019-04-05T18:48:43.903Z,99.90
2019-04-05T18:51:12.710Z,99.90
2019-04-05T18:53:41.451Z,99.90
2019-04-05T18:56:10.586Z,99.90
2019-04-05T18:58:40.129Z,99.90
2019-04-05T19:01:08.999Z,99.90
2019-04-05T19:03:38.371Z,99.90
2019-04-05T19:06:07.527Z,99.90
2019-04-05T19:08:39.942Z,99.90
2019-04-05T19:11:07.996Z,99.90
2019-04-05T19:13:36.884Z,99.90
2019-04-05T19:16:10.335Z,99.90
2019-04-05T19:18:42.258Z,99.90
2019-04-05T19:21:11.513Z,99.90
2019-04-05T19:23:50.859Z,99.90
2019-04-05T19:26:17.153Z,99.90
2019-04-05T19:28:46.543Z,99.90
2019-04-05T19:48:51.049Z,99.90
2019-04-05T19:51:20.045Z,99.90
2019-04-05T19:53:48.823Z,99.90
2019-04-05T19:56:18.000Z,99.90
2019-04-05T19:58:46.876Z,99.90
2019-04-05T20:01:16.037Z,99.90
2019-04-05T20:03:47.029Z,99.90
2019-04-05T20:06:15.899Z,99.90
2019-04-05T20:08:44.684Z,99.90
2019-04-05T20:11:13.750Z,99.90
2019-04-05T20:13:43.061Z,99.90
2019-04-05T20:16:11.950Z,99.90
2019-04-05T20:18:40.820Z,99.90
2019-04-05T20:21:09.794Z,99.90
2019-04-05T20:23:47.183Z,99.90
2019-04-05T20:26:09.467Z,99.90
2019-04-05T20:28:38.232Z,99.90
2019-04-05T20:31:07.211Z,99.90
2019-04-05T20:33:36.014Z,99.90
2019-04-05T20:36:04.811Z,99.90
2019-04-05T20:38:33.623Z,99.90
2019-04-05T20:41:02.492Z,99.90
2019-04-05T20:43:31.211Z,99.90
2019-04-05T20:46:01.036Z,99.90
2019-04-05T20:48:29.939Z,99.90
2019-04-05T20:50:59.933Z,99.90
2019-04-05T20:53:29.057Z,99.90
2019-04-05T20:55:57.984Z,99.90
2019-04-05T20:58:26.949Z,99.90
2019-04-05T21:00:55.811Z,99.90
2019-04-05T21:03:25.072Z,99.90
2019-04-05T21:05:53.966Z,99.90
2019-04-05T21:08:23.142Z,99.90
2019-04-05T21:10:52.487Z,99.90
2019-04-05T21:13:21.234Z,99.90
2019-04-05T21:15:52.111Z,99.90
2019-04-05T21:18:20.860Z,99.90
2019-04-05T21:20:49.775Z,99.90
2019-04-05T21:23:18.666Z,99.90
2019-04-05T21:25:52.877Z,99.90
2019-04-05T21:28:24.991Z,99.90
2019-04-05T21:30:55.113Z,99.90
2019-04-05T21:33:24.282Z,99.90
2019-04-05T21:35:53.172Z,99.90
2019-04-05T21:38:21.964Z,99.90
2019-04-05T21:40:50.763Z,99.90
2019-04-05T21:43:19.548Z,99.90
2019-04-05T21:45:48.368Z,99.90
2019-04-05T21:48:17.224Z,99.90
2019-04-05T21:50:46.312Z,99.90
2019-04-05T21:53:15.098Z,99.90
2019-04-05T21:55:44.152Z,99.90
2019-04-05T21:58:13.095Z,99.90
2019-04-05T22:00:50.110Z,99.90
2019-04-05T22:03:19.414Z,99.90
2019-04-05T22:05:48.572Z,99.90
2019-04-05T22:08:17.354Z,99.90
2019-04-05T22:10:46.299Z,99.90
2019-04-05T22:13:15.551Z,99.90
2019-04-05T22:15:44.693Z,99.90
2019-04-05T22:18:14.073Z,99.90
2019-04-05T22:20:42.935Z,99.90
2019-04-05T22:23:12.001Z,99.90
2019-04-05T22:25:41.076Z,99.90
2019-04-05T22:28:10.061Z,99.90
2019-04-05T22:30:38.943Z,99.90
2019-04-05T22:33:08.018Z,99.90
2019-04-05T22:35:36.895Z,99.90
2019-04-05T22:38:05.859Z,99.90
2019-04-05T22:40:34.650Z,99.90
2019-04-05T22:43:03.670Z,99.90
2019-04-05T22:45:32.414Z,99.90
2019-04-05T22:48:01.274Z,99.90
2019-04-05T22:50:30.101Z,99.90
2019-04-05T22:52:58.895Z,99.90
2019-04-05T22:55:27.705Z,99.90
2019-04-05T22:57:56.800Z,99.90
2019-04-05T23:00:25.883Z,99.90
2019-04-05T23:02:54.988Z,99.90
2019-04-05T23:05:23.774Z,99.90
2019-04-05T23:07:52.599Z,99.90
2019-04-05T23:10:21.967Z,99.90
2019-04-05T23:12:51.316Z,99.90
2019-04-05T23:15:20.046Z,99.90
2019-04-05T23:17:48.883Z,99.90
2019-04-05T23:20:17.698Z,99.90
2019-04-05T23:22:46.519Z,99.90
2019-04-05T23:25:21.780Z,99.90
2019-04-05T23:27:45.978Z,99.90
2019-04-05T23:30:15.444Z,99.90
2019-04-05T23:32:44.340Z,99.90
2019-04-05T23:35:13.473Z,99.90
2019-04-05T23:37:42.635Z,99.90
2019-04-05T23:40:11.948Z,99.90
2019-04-05T23:42:40.714Z,99.90
2019-04-05T23:45:09.939Z,99.90
2019-04-05T23:47:38.734Z,99.90
2019-04-05T23:50:07.713Z,99.90
2019-04-05T23:52:36.447Z,99.90
2019-04-05T23:55:05.891Z,99.90
2019-04-05T23:57:34.923Z,99.90
